Time;durP1;ratioP1;P1;durP2;ratioP2;P2;SDS_P1;SDS_P2;PMS_P1;PMS_P2;Temp;Humidity;BMP_temperature;BMP_pressure;BME280_temperature;BME280_humidity;BME280_pressure;Samples;Min_cycle;Max_cycle;Signal;HPM_P1;HPM_P2
2022/01/19 00:01:48;;;;;;;;;;;4.60;99.90;;;;;;5043573;28;20578;-74
2022/01/19 00:04:13;;;;;;;;;;;4.60;99.90;;;;;;5051042;28;19921;-74
2022/01/19 00:06:39;;;;;;;;;;;4.70;99.90;;;;;;5034591;28;19927;-74
2022/01/19 00:09:04;;;;;;;;;;;4.70;99.90;;;;;;5050646;28;20364;-74
2022/01/19 00:11:30;;;;;;;;;;;4.70;99.90;;;;;;5050691;28;20004;-74
2022/01/19 00:13:55;;;;;;;;;;;4.80;99.90;;;;;;5034023;28;19928;-74
2022/01/19 00:16:21;;;;;;;;;;;4.70;99.90;;;;;;5034144;28;19924;-74
2022/01/19 00:18:47;;;;;;;;;;;4.70;99.90;;;;;;5030763;28;20006;-74
2022/01/19 00:21:12;;;;;;;;;;;4.70;99.90;;;;;;5025906;28;20315;-74
2022/01/19 00:23:38;;;;;;;;;;;4.70;99.90;;;;;;5033485;28;19921;-74
2022/01/19 00:26:03;;;;;;;;;;;4.70;99.90;;;;;;5050417;28;19928;-74
2022/01/19 00:28:29;;;;;;;;;;;4.60;99.90;;;;;;5050534;28;19921;-74
2022/01/19 00:30:55;;;;;;;;;;;4.70;99.90;;;;;;5050662;28;20346;-74
2022/01/19 00:33:20;;;;;;;;;;;4.70;99.90;;;;;;5033701;28;19967;-74
2022/01/19 00:35:46;;;;;;;;;;;4.70;99.90;;;;;;5034006;28;19956;-74
2022/01/19 00:38:12;;;;;;;;;;;4.60;99.90;;;;;;5034047;28;20370;-74
2022/01/19 00:40:38;;;;;;;;;;;4.60;99.90;;;;;;5051673;28;19968;-75
2022/01/19 00:43:04;;;;;;;;;;;4.50;99.90;;;;;;5033538;28;19943;-74
2022/01/19 00:45:29;;;;;;;;;;;4.50;99.90;;;;;;5050152;28;19921;-74
2022/01/19 00:47:55;;;;;;;;;;;4.50;99.90;;;;;;5049001;28;19943;-74
2022/01/19 00:50:23;;;;;;;;;;;4.60;99.90;;;;;;5033920;28;19927;-74
2022/01/19 00:52:51;;;;;;;;;;;4.50;99.90;;;;;;5033642;28;19921;-74
2022/01/19 00:55:17;;;;;;;;;;;4.40;99.90;;;;;;5033714;28;19935;-74
2022/01/19 00:57:43;;;;;;;;;;;4.40;99.90;;;;;;5033362;28;19927;-74
2022/01/19 01:00:11;;;;;;;;;;;4.40;99.90;;;;;;5033344;28;19925;-74
2022/01/19 01:02:36;;;;;;;;;;;4.40;99.90;;;;;;5030044;28;19944;-74
2022/01/19 01:05:02;;;;;;;;;;;4.50;99.90;;;;;;5030613;28;19921;-74
2022/01/19 01:07:27;;;;;;;;;;;4.40;99.90;;;;;;5016427;28;21545;-74
2022/01/19 01:09:53;;;;;;;;;;;4.40;99.90;;;;;;5050332;28;20402;-75
2022/01/19 01:12:22;;;;;;;;;;;4.40;99.90;;;;;;5050334;28;19928;-74
2022/01/19 01:20:17;;;;;;;;;;;4.30;99.90;;;;;;5050118;28;19925;-74
2022/01/19 01:22:43;;;;;;;;;;;4.30;99.90;;;;;;5032911;28;20424;-74
2022/01/19 01:25:09;;;;;;;;;;;4.30;99.90;;;;;;5033416;28;19921;-74
2022/01/19 01:27:35;;;;;;;;;;;4.30;99.90;;;;;;5033827;28;19928;-74
2022/01/19 01:30:00;;;;;;;;;;;4.30;99.90;;;;;;5050410;28;20007;-74
2022/01/19 01:32:26;;;;;;;;;;;4.20;99.90;;;;;;5033518;28;19921;-74
2022/01/19 01:34:52;;;;;;;;;;;4.20;99.90;;;;;;5053087;28;19928;-74
2022/01/19 01:37:18;;;;;;;;;;;4.20;99.90;;;;;;5050218;28;19921;-74
2022/01/19 01:39:44;;;;;;;;;;;4.20;99.90;;;;;;5025199;28;19928;-74
2022/01/19 01:42:10;;;;;;;;;;;4.10;99.90;;;;;;5034069;28;19922;-74
2022/01/19 01:44:37;;;;;;;;;;;4.10;99.90;;;;;;5033674;28;19921;-74
2022/01/19 01:47:03;;;;;;;;;;;4.10;99.90;;;;;;5034986;28;19921;-74
2022/01/19 01:49:44;;;;;;;;;;;4.00;99.90;;;;;;5024231;28;19931;-74
2022/01/19 01:54:55;;;;;;;;;;;4.00;99.90;;;;;;5053193;28;19974;-74
2022/01/19 01:57:20;;;;;;;;;;;4.00;99.90;;;;;;5036805;28;19920;-74
2022/01/19 01:59:46;;;;;;;;;;;4.00;99.90;;;;;;5036180;28;19920;-74
2022/01/19 02:02:11;;;;;;;;;;;4.00;99.90;;;;;;5052754;28;19960;-74
2022/01/19 02:04:41;;;;;;;;;;;3.90;99.90;;;;;;5036745;28;19928;-74
2022/01/19 02:09:44;;;;;;;;;;;3.90;99.90;;;;;;5041315;28;19920;-74
2022/01/19 02:23:19;;;;;;;;;;;3.80;99.90;;;;;;5032735;28;20406;-74
2022/01/19 02:25:46;;;;;;;;;;;3.90;99.90;;;;;;5016477;28;20109;-74
2022/01/19 02:41:38;;;;;;;;;;;3.80;99.90;;;;;;5052566;28;19988;-74
2022/01/19 02:44:05;;;;;;;;;;;3.70;99.90;;;;;;5035680;28;19943;-74
2022/01/19 02:49:16;;;;;;;;;;;3.70;99.90;;;;;;5052714;28;20316;-74
2022/01/19 02:51:42;;;;;;;;;;;3.70;99.90;;;;;;5052896;28;19921;-74
2022/01/19 02:54:15;;;;;;;;;;;3.80;99.90;;;;;;5035361;28;19967;-74
2022/01/19 02:56:44;;;;;;;;;;;3.70;99.90;;;;;;5035345;28;19921;-74
2022/01/19 02:59:16;;;;;;;;;;;3.60;99.90;;;;;;5035891;28;19974;-74
2022/01/19 03:09:42;;;;;;;;;;;3.50;99.90;;;;;;5052221;28;19960;-74
2022/01/19 03:12:08;;;;;;;;;;;3.40;99.90;;;;;;5051849;28;19956;-74
2022/01/19 03:14:34;;;;;;;;;;;3.40;99.90;;;;;;5052090;28;19924;-74
2022/01/19 03:16:59;;;;;;;;;;;3.40;99.90;;;;;;5035284;28;19921;-74
2022/01/19 03:19:27;;;;;;;;;;;3.40;99.90;;;;;;5035176;28;19971;-74
2022/01/19 03:21:53;;;;;;;;;;;3.40;99.90;;;;;;5051731;28;20429;-74
2022/01/19 03:24:19;;;;;;;;;;;3.40;99.90;;;;;;5053009;28;20115;-74
2022/01/19 03:26:44;;;;;;;;;;;3.30;99.90;;;;;;5035111;28;19925;-74
2022/01/19 03:29:10;;;;;;;;;;;3.30;99.90;;;;;;5051246;28;19925;-74
2022/01/19 03:31:36;;;;;;;;;;;3.40;99.90;;;;;;5034582;28;19964;-74
2022/01/19 03:34:01;;;;;;;;;;;3.20;99.90;;;;;;5052642;28;19921;-74
2022/01/19 03:36:27;;;;;;;;;;;3.30;99.90;;;;;;5035064;28;19921;-74
2022/01/19 03:38:53;;;;;;;;;;;3.20;99.90;;;;;;5035184;28;19920;-74
2022/01/19 03:41:18;;;;;;;;;;;3.10;99.90;;;;;;5050938;28;19932;-74
2022/01/19 03:43:44;;;;;;;;;;;3.10;99.90;;;;;;5052289;28;19921;-74
2022/01/19 03:46:15;;;;;;;;;;;3.00;99.90;;;;;;5027660;28;21380;-74
2022/01/19 03:48:45;;;;;;;;;;;3.00;99.90;;;;;;5031353;28;20016;-74
2022/01/19 03:51:11;;;;;;;;;;;3.00;99.90;;;;;;5032748;28;20004;-74
2022/01/19 03:53:37;;;;;;;;;;;2.90;99.90;;;;;;5034453;28;19921;-74
2022/01/19 03:56:03;;;;;;;;;;;2.90;99.90;;;;;;5050829;28;19920;-74
2022/01/19 03:58:29;;;;;;;;;;;2.90;99.90;;;;;;5034705;28;19932;-74
2022/01/19 04:00:57;;;;;;;;;;;2.80;99.90;;;;;;5050598;28;19978;-74
2022/01/19 04:03:32;;;;;;;;;;;2.80;99.90;;;;;;5034481;28;20383;-74
2022/01/19 04:06:04;;;;;;;;;;;2.80;99.90;;;;;;5034615;28;19925;-74
2022/01/19 04:08:30;;;;;;;;;;;2.70;99.90;;;;;;5034360;28;19920;-74
2022/01/19 04:10:55;;;;;;;;;;;2.60;99.90;;;;;;5034067;28;19921;-74
2022/01/19 04:15:53;;;;;;;;;;;2.60;99.90;;;;;;5052476;28;20341;-74
2022/01/19 04:18:18;;;;;;;;;;;2.60;99.90;;;;;;5034483;28;20007;-74
2022/01/19 04:20:48;;;;;;;;;;;2.50;99.90;;;;;;5033508;28;20505;-74
2022/01/19 04:23:14;;;;;;;;;;;2.50;99.90;;;;;;5051925;28;19921;-74
2022/01/19 04:25:39;;;;;;;;;;;2.50;99.90;;;;;;5033999;28;20370;-74
2022/01/19 04:28:07;;;;;;;;;;;2.50;99.90;;;;;;5036823;28;20401;-76
2022/01/19 04:30:33;;;;;;;;;;;2.40;99.90;;;;;;5036297;28;19952;-76
2022/01/19 04:35:28;;;;;;;;;;;2.40;99.90;;;;;;5053360;28;20341;-76
2022/01/19 05:02:42;;;;;;;;;;;2.10;99.90;;;;;;5050700;28;20019;-76
2022/01/19 05:05:15;;;;;;;;;;;2.10;99.90;;;;;;5050924;28;19931;-76
2022/01/19 05:07:56;;;;;;;;;;;2.10;99.90;;;;;;5051225;28;19928;-76
2022/01/19 05:15:51;;;;;;;;;;;2.00;99.90;;;;;;5054535;28;19921;-76
2022/01/19 05:18:17;;;;;;;;;;;2.00;99.90;;;;;;5037848;28;19928;-76
2022/01/19 05:20:45;;;;;;;;;;;2.10;99.90;;;;;;5037477;28;19925;-77
2022/01/19 05:23:11;;;;;;;;;;;2.00;99.90;;;;;;5038054;28;19956;-75
2022/01/19 05:25:36;;;;;;;;;;;2.10;99.90;;;;;;5037616;28;20355;-75
2022/01/19 05:28:02;;;;;;;;;;;2.00;99.90;;;;;;5037946;28;19929;-76
2022/01/19 05:30:28;;;;;;;;;;;2.10;99.90;;;;;;5033976;28;19932;-76
2022/01/19 05:32:53;;;;;;;;;;;2.10;99.90;;;;;;5051542;28;19928;-76
2022/01/19 05:35:19;;;;;;;;;;;2.00;99.90;;;;;;5034219;28;19921;-76
2022/01/19 05:37:44;;;;;;;;;;;2.10;99.90;;;;;;5045953;28;19960;-76
2022/01/19 05:40:13;;;;;;;;;;;2.10;99.90;;;;;;5037590;28;19974;-76
2022/01/19 05:42:39;;;;;;;;;;;2.10;99.90;;;;;;5054301;28;19931;-76
2022/01/19 05:45:05;;;;;;;;;;;2.20;99.90;;;;;;5037827;28;19924;-76
2022/01/19 05:47:31;;;;;;;;;;;2.20;99.90;;;;;;5036766;28;19925;-76
2022/01/19 05:49:57;;;;;;;;;;;2.20;99.90;;;;;;5037191;28;19921;-76
2022/01/19 05:52:22;;;;;;;;;;;2.30;99.90;;;;;;5037191;28;19928;-76
2022/01/19 05:54:48;;;;;;;;;;;2.30;99.90;;;;;;5036788;28;20276;-76
2022/01/19 05:57:14;;;;;;;;;;;2.30;99.90;;;;;;5037440;28;20368;-77
2022/01/19 05:59:39;;;;;;;;;;;2.30;99.90;;;;;;5050381;28;19921;-76
2022/01/19 06:02:05;;;;;;;;;;;2.30;99.90;;;;;;5034098;28;19929;-76
2022/01/19 06:04:30;;;;;;;;;;;2.30;99.90;;;;;;5048263;28;19921;-76
2022/01/19 06:06:56;;;;;;;;;;;2.40;99.90;;;;;;5037000;28;20019;-76
2022/01/19 06:09:37;;;;;;;;;;;2.40;99.90;;;;;;5036558;28;19976;-76
2022/01/19 06:12:05;;;;;;;;;;;2.30;99.90;;;;;;5053600;28;19928;-76
2022/01/19 06:14:31;;;;;;;;;;;2.40;99.90;;;;;;5052894;28;19932;-76
2022/01/19 06:16:57;;;;;;;;;;;2.40;99.90;;;;;;5036845;28;19928;-76
2022/01/19 06:19:23;;;;;;;;;;;2.50;99.90;;;;;;5036026;28;19921;-76
2022/01/19 06:21:48;;;;;;;;;;;2.50;99.90;;;;;;5036754;28;20364;-76
2022/01/19 06:24:14;;;;;;;;;;;2.50;99.90;;;;;;5053136;28;19924;-75
2022/01/19 06:26:39;;;;;;;;;;;2.50;99.90;;;;;;5053181;28;19921;-76
2022/01/19 06:29:05;;;;;;;;;;;2.50;99.90;;;;;;5036404;28;20006;-76
2022/01/19 06:31:31;;;;;;;;;;;2.50;99.90;;;;;;5036445;28;20371;-76
2022/01/19 06:33:56;;;;;;;;;;;2.50;99.90;;;;;;5036504;28;20007;-76
2022/01/19 06:36:22;;;;;;;;;;;2.50;99.90;;;;;;5036491;28;19921;-76
2022/01/19 06:38:47;;;;;;;;;;;2.50;99.90;;;;;;5052750;28;19943;-76
2022/01/19 06:41:13;;;;;;;;;;;2.50;99.90;;;;;;5036057;28;19929;-76
2022/01/19 06:43:39;;;;;;;;;;;2.50;99.90;;;;;;5035582;28;19960;-76
2022/01/19 06:46:04;;;;;;;;;;;2.60;99.90;;;;;;5032591;28;19987;-76
2022/01/19 06:48:30;;;;;;;;;;;2.60;99.90;;;;;;5016440;28;19928;-76
2022/01/19 06:50:56;;;;;;;;;;;2.70;99.90;;;;;;5030061;28;19924;-76
2022/01/19 06:53:21;;;;;;;;;;;2.60;99.90;;;;;;5035693;28;19921;-76
2022/01/19 06:55:47;;;;;;;;;;;2.60;99.90;;;;;;5035625;28;20024;-76
2022/01/19 06:58:12;;;;;;;;;;;2.70;99.90;;;;;;5035794;28;19960;-76
2022/01/19 07:00:38;;;;;;;;;;;2.80;99.90;;;;;;5035712;28;19924;-77
2022/01/19 07:03:04;;;;;;;;;;;2.80;99.90;;;;;;5035465;28;19921;-76
2022/01/19 07:05:29;;;;;;;;;;;2.80;99.90;;;;;;5035828;28;20014;-77
2022/01/19 07:07:57;;;;;;;;;;;2.80;99.90;;;;;;5035651;28;20034;-76
2022/01/19 07:10:23;;;;;;;;;;;2.90;99.90;;;;;;5035463;28;19920;-77
2022/01/19 07:12:48;;;;;;;;;;;2.80;99.90;;;;;;5051846;28;19944;-77
2022/01/19 07:15:14;;;;;;;;;;;2.90;99.90;;;;;;5035485;28;19928;-76
2022/01/19 07:17:39;;;;;;;;;;;2.90;99.90;;;;;;5051933;28;19943;-76
2022/01/19 07:20:05;;;;;;;;;;;2.90;99.90;;;;;;5035224;28;19928;-76
2022/01/19 07:22:31;;;;;;;;;;;3.00;99.90;;;;;;5035231;28;19921;-77
2022/01/19 07:24:58;;;;;;;;;;;3.00;99.90;;;;;;5035325;28;20183;-76
2022/01/19 07:27:24;;;;;;;;;;;3.00;99.90;;;;;;5051936;28;19927;-77
2022/01/19 07:29:49;;;;;;;;;;;3.00;99.90;;;;;;5051321;28;19924;-76
2022/01/19 07:32:15;;;;;;;;;;;3.10;99.90;;;;;;5034400;28;19925;-77
2022/01/19 07:34:40;;;;;;;;;;;3.00;99.90;;;;;;5051781;28;19921;-76
2022/01/19 07:37:06;;;;;;;;;;;3.00;99.90;;;;;;5034479;28;19921;-76
2022/01/19 07:39:32;;;;;;;;;;;3.00;99.90;;;;;;5035322;28;20055;-77
2022/01/19 07:41:57;;;;;;;;;;;3.00;99.90;;;;;;5035185;28;19925;-76
2022/01/19 07:44:23;;;;;;;;;;;3.00;99.90;;;;;;5029049;28;19921;-77
2022/01/19 07:46:50;;;;;;;;;;;3.00;99.90;;;;;;5025302;28;19954;-78
2022/01/19 07:49:17;;;;;;;;;;;3.00;99.90;;;;;;5022573;28;19924;-77
2022/01/19 07:51:42;;;;;;;;;;;3.10;99.90;;;;;;5051830;28;19925;-77
2022/01/19 07:54:08;;;;;;;;;;;3.00;99.90;;;;;;5033518;28;19928;-77
2022/01/19 07:56:34;;;;;;;;;;;3.10;99.90;;;;;;5035041;28;20349;-76
2022/01/19 07:58:59;;;;;;;;;;;3.10;99.90;;;;;;5051928;28;19968;-77
2022/01/19 08:01:27;;;;;;;;;;;3.10;99.90;;;;;;5031858;28;19936;-78
2022/01/19 08:03:53;;;;;;;;;;;3.10;99.90;;;;;;5020758;28;20322;-76
2022/01/19 08:06:18;;;;;;;;;;;3.00;99.90;;;;;;5027292;28;19925;-76
2022/01/19 08:08:44;;;;;;;;;;;3.00;99.90;;;;;;5050710;28;19970;-77
2022/01/19 08:11:10;;;;;;;;;;;3.10;99.90;;;;;;5034334;28;19921;-77
2022/01/19 08:13:35;;;;;;;;;;;3.10;99.90;;;;;;5033879;28;19921;-76
2022/01/19 08:16:01;;;;;;;;;;;3.10;99.90;;;;;;5031041;28;19921;-76
2022/01/19 08:18:26;;;;;;;;;;;3.10;99.90;;;;;;5050059;28;20379;-77
2022/01/19 08:20:52;;;;;;;;;;;3.10;99.90;;;;;;5034630;28;19963;-77
2022/01/19 08:23:18;;;;;;;;;;;3.10;99.90;;;;;;5050919;28;19921;-77
2022/01/19 08:25:43;;;;;;;;;;;3.10;99.90;;;;;;5034187;28;20371;-77
2022/01/19 08:28:09;;;;;;;;;;;3.10;99.90;;;;;;5034862;28;20347;-77
2022/01/19 08:30:34;;;;;;;;;;;3.10;99.90;;;;;;5047589;28;20407;-77
2022/01/19 08:33:00;;;;;;;;;;;3.10;99.90;;;;;;5015123;28;19921;-77
2022/01/19 08:35:26;;;;;;;;;;;3.10;99.90;;;;;;5031105;28;20011;-77
2022/01/19 08:37:51;;;;;;;;;;;3.10;99.90;;;;;;5031461;28;19928;-76
2022/01/19 08:40:17;;;;;;;;;;;3.10;99.90;;;;;;5030870;28;19925;-77
2022/01/19 08:42:45;;;;;;;;;;;3.20;99.90;;;;;;5035560;28;19994;-77
2022/01/19 08:45:10;;;;;;;;;;;3.20;99.90;;;;;;5040091;28;19995;-76
2022/01/19 08:47:38;;;;;;;;;;;3.20;99.90;;;;;;5037839;28;19971;-76
2022/01/19 08:50:05;;;;;;;;;;;3.20;99.90;;;;;;5041120;28;19928;-76
2022/01/19 08:52:31;;;;;;;;;;;3.20;99.90;;;;;;5040400;28;19920;-76
2022/01/19 08:54:56;;;;;;;;;;;3.20;99.90;;;;;;5041006;28;19928;-77
2022/01/19 08:57:24;;;;;;;;;;;3.20;99.90;;;;;;5057097;28;20307;-77
2022/01/19 08:59:49;;;;;;;;;;;3.30;99.90;;;;;;5039838;28;19967;-77
2022/01/19 09:02:15;;;;;;;;;;;3.30;99.90;;;;;;5037164;28;19979;-78
2022/01/19 09:04:40;;;;;;;;;;;3.30;99.90;;;;;;5041235;28;19924;-77
2022/01/19 09:07:06;;;;;;;;;;;3.30;99.90;;;;;;5055341;28;20008;-78
2022/01/19 09:09:32;;;;;;;;;;;3.40;99.90;;;;;;5039973;28;20375;-78
2022/01/19 09:11:57;;;;;;;;;;;3.40;99.90;;;;;;5029112;28;19928;-77
2022/01/19 09:14:26;;;;;;;;;;;3.40;99.90;;;;;;5048985;28;20384;-77
2022/01/19 09:16:51;;;;;;;;;;;3.50;99.90;;;;;;5032792;28;19928;-77
2022/01/19 09:19:19;;;;;;;;;;;3.40;99.90;;;;;;5037730;28;19921;-78
2022/01/19 09:21:45;;;;;;;;;;;3.60;99.90;;;;;;5038109;28;19928;-78
2022/01/19 09:24:10;;;;;;;;;;;3.60;99.90;;;;;;5057892;28;19929;-77
2022/01/19 09:26:36;;;;;;;;;;;3.60;99.90;;;;;;5049063;28;20465;-77
2022/01/19 09:29:03;;;;;;;;;;;3.60;99.90;;;;;;5021366;28;19921;-78
2022/01/19 09:31:28;;;;;;;;;;;3.60;99.90;;;;;;5038522;28;19999;-78
2022/01/19 09:34:04;;;;;;;;;;;3.60;99.90;;;;;;5057974;28;20015;-77
2022/01/19 09:36:35;;;;;;;;;;;3.70;99.90;;;;;;5056251;28;19928;-77
2022/01/19 09:39:02;;;;;;;;;;;3.70;99.90;;;;;;5034368;28;19928;-77
2022/01/19 09:41:29;;;;;;;;;;;3.70;99.90;;;;;;5056889;28;20310;-78
2022/01/19 09:43:55;;;;;;;;;;;3.70;99.90;;;;;;5040728;28;19960;-78
2022/01/19 09:46:24;;;;;;;;;;;3.70;99.90;;;;;;5040689;28;19921;-77
2022/01/19 09:48:49;;;;;;;;;;;3.60;99.90;;;;;;5039837;28;19990;-78
2022/01/19 09:51:15;;;;;;;;;;;3.70;99.90;;;;;;5057545;28;20366;-78
2022/01/19 09:53:41;;;;;;;;;;;3.70;99.90;;;;;;5039850;28;19928;-77
2022/01/19 09:56:07;;;;;;;;;;;3.70;99.90;;;;;;5037326;28;20230;-78
2022/01/19 09:58:36;;;;;;;;;;;3.80;99.90;;;;;;5038601;28;19921;-78
2022/01/19 10:01:01;;;;;;;;;;;3.80;99.90;;;;;;5054305;28;19925;-78
2022/01/19 10:03:30;;;;;;;;;;;3.80;99.90;;;;;;5055310;28;19928;-78
2022/01/19 10:06:09;;;;;;;;;;;3.80;99.90;;;;;;5022617;28;19928;-78
2022/01/19 10:08:34;;;;;;;;;;;3.70;99.90;;;;;;5037786;28;19971;-78
2022/01/19 10:11:03;;;;;;;;;;;3.70;99.90;;;;;;5037517;28;19975;-77
2022/01/19 10:19:17;;;;;;;;;;;3.70;99.90;;;;;;5051131;28;19929;-77
2022/01/19 10:22:03;;;;;;;;;;;3.80;99.90;;;;;;5032236;28;20387;-78
2022/01/19 10:24:33;;;;;;;;;;;3.80;99.90;;;;;;5036895;28;19973;-78
2022/01/19 10:27:20;;;;;;;;;;;3.80;99.90;;;;;;5037601;28;20067;-78
2022/01/19 10:29:52;;;;;;;;;;;3.90;99.90;;;;;;5036466;28;19920;-78
2022/01/19 10:32:24;;;;;;;;;;;3.90;99.90;;;;;;5036617;28;19943;-78
2022/01/19 10:34:51;;;;;;;;;;;3.90;99.90;;;;;;5035716;28;19921;-78
2022/01/19 10:37:31;;;;;;;;;;;3.90;99.90;;;;;;5052537;28;19920;-78
2022/01/19 10:39:57;;;;;;;;;;;3.90;99.90;;;;;;5036307;28;19970;-78
2022/01/19 10:42:27;;;;;;;;;;;4.00;99.90;;;;;;5036030;28;20011;-78
2022/01/19 10:44:58;;;;;;;;;;;4.00;99.90;;;;;;5035650;28;19921;-78
2022/01/19 10:47:42;;;;;;;;;;;4.00;99.90;;;;;;5035658;28;19928;-78
2022/01/19 10:50:14;;;;;;;;;;;4.00;99.90;;;;;;5035920;28;19921;-78
2022/01/19 10:52:41;;;;;;;;;;;4.00;99.90;;;;;;5035578;28;19932;-78
2022/01/19 10:55:12;;;;;;;;;;;4.00;99.90;;;;;;5035890;28;19928;-78
2022/01/19 10:57:39;;;;;;;;;;;4.00;99.90;;;;;;5052312;28;20396;-79
2022/01/19 11:00:10;;;;;;;;;;;4.00;99.90;;;;;;5035311;28;19921;-78
2022/01/19 11:02:37;;;;;;;;;;;4.00;99.90;;;;;;5052047;28;19925;-78
2022/01/19 11:05:03;;;;;;;;;;;4.00;99.90;;;;;;5036041;28;19975;-78
2022/01/19 11:07:28;;;;;;;;;;;4.00;99.90;;;;;;5044296;28;19968;-77
2022/01/19 11:10:00;;;;;;;;;;;4.00;99.90;;;;;;5035422;28;19927;-78
2022/01/19 11:12:33;;;;;;;;;;;4.00;99.90;;;;;;5032471;28;19975;-77
2022/01/19 11:14:58;;;;;;;;;;;4.00;99.90;;;;;;5035256;28;20400;-77
2022/01/19 11:17:24;;;;;;;;;;;4.10;99.90;;;;;;5051919;28;19967;-77
2022/01/19 11:19:50;;;;;;;;;;;4.10;99.90;;;;;;5035458;28;19921;-76
2022/01/19 11:22:18;;;;;;;;;;;4.10;99.90;;;;;;5034276;28;19933;-77
2022/01/19 11:25:06;;;;;;;;;;;4.10;99.90;;;;;;5035561;28;19976;-77
2022/01/19 11:27:35;;;;;;;;;;;4.10;99.90;;;;;;5035221;28;19920;-77
2022/01/19 11:30:27;;;;;;;;;;;4.10;99.90;;;;;;5051778;28;20326;-77
2022/01/19 11:33:11;;;;;;;;;;;4.10;99.90;;;;;;5030594;28;19921;-77
2022/01/19 11:35:37;;;;;;;;;;;4.10;99.90;;;;;;5035242;28;19921;-76
2022/01/19 11:38:22;;;;;;;;;;;4.20;99.90;;;;;;5034961;28;19928;-77
2022/01/19 11:40:48;;;;;;;;;;;4.10;99.90;;;;;;5051330;28;20299;-77
2022/01/19 11:43:18;;;;;;;;;;;4.20;99.90;;;;;;5051011;28;19921;-77
2022/01/19 11:45:43;;;;;;;;;;;4.20;99.90;;;;;;5034986;28;19920;-76
2022/01/19 11:48:17;;;;;;;;;;;4.20;99.90;;;;;;5034990;28;19966;-77
2022/01/19 11:50:43;;;;;;;;;;;4.20;99.90;;;;;;5034697;28;19921;-77
2022/01/19 11:53:11;;;;;;;;;;;4.20;99.90;;;;;;5034224;28;20055;-77
2022/01/19 11:55:37;;;;;;;;;;;4.40;99.90;;;;;;5034630;28;19940;-77
2022/01/19 11:58:21;;;;;;;;;;;4.30;99.90;;;;;;5034741;28;20295;-77
2022/01/19 12:00:48;;;;;;;;;;;4.40;99.90;;;;;;5034980;28;20023;-77
2022/01/19 12:03:28;;;;;;;;;;;4.40;99.90;;;;;;5034368;28;20207;-77
2022/01/19 12:05:55;;;;;;;;;;;4.40;99.90;;;;;;5051176;28;20440;-76
2022/01/19 12:08:29;;;;;;;;;;;4.50;99.90;;;;;;5034327;28;19921;-77
2022/01/19 12:11:13;;;;;;;;;;;4.50;99.90;;;;;;5034281;28;19971;-77
2022/01/19 12:16:12;;;;;;;;;;;4.60;99.90;;;;;;5050887;28;20016;-77
2022/01/19 12:18:37;;;;;;;;;;;4.60;99.90;;;;;;5050412;28;20011;-77
2022/01/19 12:21:04;;;;;;;;;;;4.60;99.90;;;;;;5034285;28;20336;-77
2022/01/19 12:23:32;;;;;;;;;;;4.60;99.90;;;;;;5050333;28;19921;-77
2022/01/19 12:25:59;;;;;;;;;;;4.60;99.90;;;;;;5050617;28;20371;-77
2022/01/19 12:28:37;;;;;;;;;;;4.60;99.90;;;;;;5034203;28;19932;-77
2022/01/19 12:31:27;;;;;;;;;;;4.70;99.90;;;;;;5033770;28;20375;-77
2022/01/19 12:34:02;;;;;;;;;;;4.70;99.90;;;;;;5050437;28;19921;-77
2022/01/19 12:36:39;;;;;;;;;;;4.80;99.90;;;;;;5033713;28;19921;-77
2022/01/19 12:39:24;;;;;;;;;;;4.80;99.90;;;;;;5027917;28;20353;-77
2022/01/19 12:41:58;;;;;;;;;;;4.80;99.90;;;;;;5029070;28;19924;-77
2022/01/19 12:44:42;;;;;;;;;;;4.80;99.90;;;;;;5039127;28;19921;-77
2022/01/19 12:47:29;;;;;;;;;;;4.80;99.90;;;;;;5026787;28;20019;-78
2022/01/19 12:50:18;;;;;;;;;;;4.80;99.90;;;;;;5031692;28;20303;-78
2022/01/19 12:52:54;;;;;;;;;;;4.70;99.90;;;;;;5027073;28;19967;-78
2022/01/19 12:55:22;;;;;;;;;;;4.80;99.90;;;;;;5030581;28;19956;-78
2022/01/19 12:57:48;;;;;;;;;;;4.80;99.90;;;;;;5041708;28;19921;-78
2022/01/19 13:00:16;;;;;;;;;;;4.80;99.90;;;;;;5032169;28;19921;-76
2022/01/19 13:02:41;;;;;;;;;;;4.80;99.90;;;;;;5017282;28;19921;-76
2022/01/19 13:05:13;;;;;;;;;;;4.80;99.90;;;;;;5024071;28;20303;-77
2022/01/19 13:07:40;;;;;;;;;;;4.80;99.90;;;;;;5023277;28;19990;-76
2022/01/19 13:10:12;;;;;;;;;;;4.80;99.90;;;;;;5047459;28;20391;-77
2022/01/19 13:12:45;;;;;;;;;;;4.80;99.90;;;;;;5017650;28;20390;-77
2022/01/19 13:15:13;;;;;;;;;;;4.90;99.90;;;;;;5031762;28;19927;-77
2022/01/19 13:17:40;;;;;;;;;;;4.90;99.90;;;;;;5039655;28;19928;-76
2022/01/19 13:20:10;;;;;;;;;;;4.90;99.90;;;;;;5025595;28;19921;-77
2022/01/19 13:22:45;;;;;;;;;;;4.90;99.90;;;;;;5031745;28;19925;-76
2022/01/19 13:25:18;;;;;;;;;;;4.90;99.90;;;;;;5024279;28;19928;-77
2022/01/19 13:27:44;;;;;;;;;;;5.00;99.90;;;;;;5029772;28;19921;-77
2022/01/19 13:30:11;;;;;;;;;;;5.00;99.90;;;;;;5047025;28;19920;-76
2022/01/19 13:32:38;;;;;;;;;;;5.10;99.90;;;;;;5028884;28;20295;-77
2022/01/19 13:35:05;;;;;;;;;;;5.10;99.90;;;;;;5021605;28;20108;-77
2022/01/19 13:37:37;;;;;;;;;;;5.10;99.90;;;;;;5033251;28;19921;-77
2022/01/19 13:40:11;;;;;;;;;;;5.20;99.90;;;;;;5060978;28;20008;-77
2022/01/19 13:42:40;;;;;;;;;;;5.20;99.90;;;;;;5025943;28;19928;-77
2022/01/19 13:45:13;;;;;;;;;;;5.20;99.90;;;;;;5030855;28;19921;-77
2022/01/19 13:47:54;;;;;;;;;;;5.20;99.90;;;;;;5027788;28;19920;-77
2022/01/19 13:50:21;;;;;;;;;;;5.20;99.90;;;;;;5032919;28;20337;-77
2022/01/19 13:52:46;;;;;;;;;;;5.20;99.90;;;;;;5034202;28;19928;-77
2022/01/19 13:55:18;;;;;;;;;;;5.20;99.90;;;;;;5043985;28;20283;-77
2022/01/19 13:57:43;;;;;;;;;;;5.20;99.90;;;;;;5033469;28;19921;-76
2022/01/19 14:00:16;;;;;;;;;;;5.20;99.90;;;;;;5032555;28;19928;-77
2022/01/19 14:02:52;;;;;;;;;;;5.20;99.90;;;;;;5036045;28;19932;-76
2022/01/19 14:05:18;;;;;;;;;;;5.20;99.90;;;;;;5025093;28;19947;-76
2022/01/19 14:07:46;;;;;;;;;;;5.20;99.90;;;;;;5028031;28;19921;-75
2022/01/19 14:10:12;;;;;;;;;;;5.20;99.90;;;;;;5046544;28;19920;-74
2022/01/19 14:12:37;;;;;;;;;;;5.20;99.90;;;;;;5031095;28;20306;-75
2022/01/19 14:15:05;;;;;;;;;;;5.20;99.90;;;;;;5036566;28;19991;-75
2022/01/19 14:17:33;;;;;;;;;;;5.20;99.90;;;;;;5048473;28;19983;-74
2022/01/19 14:19:59;;;;;;;;;;;5.20;99.90;;;;;;5059865;28;19931;-74
2022/01/19 14:22:26;;;;;;;;;;;5.20;99.90;;;;;;5026539;28;19928;-75
2022/01/19 14:24:58;;;;;;;;;;;5.20;99.90;;;;;;5033921;28;19921;-75
2022/01/19 14:27:23;;;;;;;;;;;5.10;99.90;;;;;;5031153;28;19920;-75
2022/01/19 14:30:07;;;;;;;;;;;5.10;99.90;;;;;;5043439;28;19920;-75
2022/01/19 14:32:34;;;;;;;;;;;5.10;99.90;;;;;;5047376;28;20441;-74
2022/01/19 14:34:59;;;;;;;;;;;5.00;99.90;;;;;;5048232;28;19921;-74
2022/01/19 14:37:25;;;;;;;;;;;5.00;99.90;;;;;;5035742;28;20470;-75
2022/01/19 14:39:50;;;;;;;;;;;5.00;99.90;;;;;;5035951;28;20302;-75
2022/01/19 14:42:18;;;;;;;;;;;5.00;99.90;;;;;;5034375;28;19940;-74
2022/01/19 14:44:57;;;;;;;;;;;5.00;99.90;;;;;;5051976;28;20047;-74
2022/01/19 14:47:35;;;;;;;;;;;4.90;99.90;;;;;;5048560;28;19921;-74
2022/01/19 14:50:20;;;;;;;;;;;4.90;99.90;;;;;;5028830;28;19924;-75
2022/01/19 14:52:49;;;;;;;;;;;4.90;99.90;;;;;;5034998;28;19956;-75
2022/01/19 14:55:15;;;;;;;;;;;4.90;99.90;;;;;;5041609;28;19932;-74
2022/01/19 14:57:41;;;;;;;;;;;4.90;99.90;;;;;;5028287;28;20411;-74
2022/01/19 15:00:07;;;;;;;;;;;4.90;99.90;;;;;;5031818;28;20028;-75
2022/01/19 15:02:33;;;;;;;;;;;4.90;99.90;;;;;;5003525;28;20437;-75
2022/01/19 15:04:58;;;;;;;;;;;4.90;99.90;;;;;;5026685;28;19925;-74
2022/01/19 15:07:24;;;;;;;;;;;4.90;99.90;;;;;;5035183;28;19921;-75
2022/01/19 15:09:49;;;;;;;;;;;4.90;99.90;;;;;;5031248;28;19921;-74
2022/01/19 15:12:15;;;;;;;;;;;4.90;99.90;;;;;;5026238;28;19946;-74
2022/01/19 15:14:40;;;;;;;;;;;4.90;99.90;;;;;;5027198;28;19921;-74
2022/01/19 15:17:08;;;;;;;;;;;4.90;99.90;;;;;;5026368;28;19921;-75
2022/01/19 15:19:34;;;;;;;;;;;4.80;99.90;;;;;;5031562;28;19929;-74
2022/01/19 15:21:59;;;;;;;;;;;4.90;99.90;;;;;;5029028;28;19931;-74
2022/01/19 15:24:25;;;;;;;;;;;4.90;99.90;;;;;;5029161;28;19932;-75
2022/01/19 15:26:50;;;;;;;;;;;4.90;99.90;;;;;;5031423;28;21095;-74
2022/01/19 15:29:16;;;;;;;;;;;4.90;99.90;;;;;;5029407;28;19927;-74
2022/01/19 15:31:44;;;;;;;;;;;4.90;99.90;;;;;;5030138;28;19924;-74
2022/01/19 15:34:10;;;;;;;;;;;4.90;99.90;;;;;;5051622;28;19927;-75
2022/01/19 15:36:36;;;;;;;;;;;4.90;99.90;;;;;;5020950;28;19928;-74
2022/01/19 15:39:06;;;;;;;;;;;4.90;99.90;;;;;;5030313;28;19921;-74
2022/01/19 15:41:32;;;;;;;;;;;4.90;99.90;;;;;;5031435;28;19925;-75
2022/01/19 15:43:57;;;;;;;;;;;5.00;99.90;;;;;;5023905;28;19921;-74
2022/01/19 15:46:23;;;;;;;;;;;5.00;99.90;;;;;;5031385;28;20444;-75
2022/01/19 15:48:49;;;;;;;;;;;5.00;99.90;;;;;;5030617;28;19927;-75
2022/01/19 15:51:14;;;;;;;;;;;5.00;99.90;;;;;;5030744;28;19940;-74
2022/01/19 15:53:40;;;;;;;;;;;5.00;99.90;;;;;;5040040;28;20283;-74
2022/01/19 15:56:05;;;;;;;;;;;5.10;99.90;;;;;;5026073;28;19959;-74
2022/01/19 15:58:31;;;;;;;;;;;5.10;99.90;;;;;;5026238;28;19921;-74
2022/01/19 16:00:59;;;;;;;;;;;5.10;99.90;;;;;;5048220;28;19978;-74
2022/01/19 16:03:25;;;;;;;;;;;5.10;99.90;;;;;;5032503;28;19925;-75
2022/01/19 16:05:52;;;;;;;;;;;5.20;99.90;;;;;;5031925;28;20367;-74